Time;durP1;ratioP1;P1;durP2;ratioP2;P2;SDS_P1;SDS_P2;PMS_P1;PMS_P2;Temp;Humidity;BMP_temperature;BMP_pressure;BME280_temperature;BME280_humidity;BME280_pressure;Samples;Min_cycle;Max_cycle;Signal;HPM_P1;HPM_P2
2023/07/06 00:01:02;;;;;;;;;6.50;5.50;;;;;;;;2057955;27;1812795;-73
2023/07/06 00:02:13;;;;;;;;;8.00;8.00;;;;;;;;2041443;27;2746075;-73
2023/07/06 00:03:24;;;;;;;;;8.00;7.50;;;;;;;;2047703;27;2739934;-73
2023/07/06 00:04:37;;;;;;;;;8.50;8.50;;;;;;;;2072117;27;1817497;-73
2023/07/06 00:05:47;;;;;;;;;8.00;6.00;;;;;;;;2033586;27;2740882;-73
2023/07/06 00:06:58;;;;;;;;;8.67;8.33;;;;;;;;2060518;27;2746180;-73
2023/07/06 00:08:09;;;;;;;;;11.67;8.33;;;;;;;;2061228;27;1824360;-73
2023/07/06 00:09:20;;;;;;;;;8.50;8.50;;;;;;;;2017375;27;2746153;-73
2023/07/06 00:10:31;;;;;;;;;9.00;8.00;;;;;;;;2029081;27;2744004;-73
2023/07/06 00:11:44;;;;;;;;;8.67;8.00;;;;;;;;2061846;27;2741985;-73
2023/07/06 00:12:57;;;;;;;;;8.25;7.50;;;;;;;;2056068;27;1827432;-73
2023/07/06 00:14:09;;;;;;;;;8.33;7.67;;;;;;;;2041567;27;3459675;-73
2023/07/06 00:15:20;;;;;;;;;10.75;7.75;;;;;;;;2047481;27;1829532;-75
2023/07/06 00:16:31;;;;;;;;;8.00;7.00;;;;;;;;2032020;27;2730565;-73
2023/07/06 00:17:42;;;;;;;;;7.50;7.00;;;;;;;;2075216;27;1821146;-73
2023/07/06 00:18:52;;;;;;;;;7.67;6.00;;;;;;;;2018089;27;2743055;-73
2023/07/06 00:20:12;;;;;;;;;9.33;7.67;;;;;;;;2065395;27;1821087;-73
2023/07/06 00:21:26;;;;;;;;;8.00;8.00;;;;;;;;2054504;27;2736059;-73
2023/07/06 00:22:37;;;;;;;;;9.33;6.67;;;;;;;;2026050;27;1826314;-74
2023/07/06 00:23:50;;;;;;;;;8.00;8.00;;;;;;;;2033791;27;2740912;-74
2023/07/06 00:25:00;;;;;;;;;10.00;7.00;;;;;;;;2042720;27;2750312;-73
2023/07/06 00:26:11;;;;;;;;;9.67;7.00;;;;;;;;2071868;27;1823152;-73
2023/07/06 00:27:22;;;;;;;;;7.67;6.67;;;;;;;;2034797;27;2745089;-73
2023/07/06 00:28:34;;;;;;;;;10.00;7.50;;;;;;;;2062980;27;2760681;-74
2023/07/06 00:29:56;;;;;;;;;6.67;6.00;;;;;;;;2042579;27;2733689;-74
2023/07/06 00:31:20;;;;;;;;;6.00;4.67;;;;;;;;2044011;27;2750287;-74
2023/07/06 00:32:32;;;;;;;;;11.00;7.75;;;;;;;;2056869;27;1835862;-74
2023/07/06 00:33:43;;;;;;;;;7.00;7.00;;;;;;;;2034977;27;2491970;-73
2023/07/06 00:34:54;;;;;;;;;6.00;5.00;;;;;;;;2061014;27;2738821;-74
2023/07/06 00:36:07;;;;;;;;;7.67;6.50;;;;;;;;2051442;27;2737782;-74
2023/07/06 00:37:21;;;;;;;;;3.00;2.17;;;;;;;;2033287;27;2736758;-74
2023/07/06 00:38:36;;;;;;;;;9.00;6.67;;;;;;;;2037658;27;2732563;-74
2023/07/06 00:39:48;;;;;;;;;6.33;6.33;;;;;;;;2013225;27;3453382;-74
2023/07/06 00:41:02;;;;;;;;;5.67;5.67;;;;;;;;2069279;27;2735670;-74
2023/07/06 00:42:14;;;;;;;;;10.00;8.25;;;;;;;;2033319;27;1841997;-74
2023/07/06 00:43:29;;;;;;;;;12.00;8.00;;;;;;;;2034582;27;2762787;-74
2023/07/06 00:44:50;;;;;;;;;8.33;5.33;;;;;;;;2034602;27;3453365;-74
2023/07/06 00:46:08;;;;;;;;;7.00;6.00;;;;;;;;2069018;27;1819028;-74
2023/07/06 00:47:24;;;;;;;;;11.00;9.00;;;;;;;;2019003;27;3473152;-74
2023/07/06 00:48:36;;;;;;;;;6.50;6.00;;;;;;;;2043119;27;2744011;-74
2023/07/06 00:49:50;;;;;;;;;7.00;7.00;;;;;;;;2060946;27;2741967;-73
2023/07/06 00:51:04;;;;;;;;;8.00;6.00;;;;;;;;2036431;27;2728394;-73
2023/07/06 00:52:15;;;;;;;;;9.00;8.00;;;;;;;;2043549;27;2740422;-73
2023/07/06 00:53:32;;;;;;;;;7.75;7.00;;;;;;;;2052704;27;1818542;-74
2023/07/06 00:54:42;;;;;;;;;8.67;8.67;;;;;;;;2057068;27;1842428;-74
2023/07/06 00:55:57;;;;;;;;;8.00;7.67;;;;;;;;2006505;27;3460657;-74
2023/07/06 00:57:11;;;;;;;;;9.00;7.00;;;;;;;;2026199;27;2491914;-74
2023/07/06 00:58:25;;;;;;;;;10.00;7.00;;;;;;;;2032452;27;2755476;-74
2023/07/06 00:59:36;;;;;;;;;13.00;8.50;;;;;;;;2040383;27;1850290;-74
2023/07/06 01:00:47;;;;;;;;;5.33;4.00;;;;;;;;2036328;27;2740372;-74
2023/07/06 01:02:02;;;;;;;;;7.67;6.50;;;;;;;;2070166;27;2727848;-74
2023/07/06 01:03:13;;;;;;;;;8.50;7.50;;;;;;;;2018460;27;2734660;-74
2023/07/06 01:04:23;;;;;;;;;7.00;6.00;;;;;;;;2047224;27;3451319;-74
2023/07/06 01:05:38;;;;;;;;;8.67;5.33;;;;;;;;2053140;27;2744011;-75
2023/07/06 01:06:51;;;;;;;;;9.33;7.33;;;;;;;;2034364;27;2756557;-75
2023/07/06 01:08:10;;;;;;;;;7.00;7.00;;;;;;;;2027061;27;2735708;-75
2023/07/06 01:09:21;;;;;;;;;7.00;6.00;;;;;;;;2036894;27;2474287;-75
2023/07/06 01:10:33;;;;;;;;;9.00;8.00;;;;;;;;2057634;27;1815349;-75
2023/07/06 01:11:43;;;;;;;;;8.67;7.00;;;;;;;;2020717;27;2746611;-75
2023/07/06 01:12:54;;;;;;;;;6.00;6.00;;;;;;;;2066711;27;2738791;-75
2023/07/06 01:14:04;;;;;;;;;7.50;6.00;;;;;;;;2030196;27;2727633;-75
2023/07/06 01:15:16;;;;;;;;;9.00;7.00;;;;;;;;2055912;27;3462735;-75
2023/07/06 01:16:32;;;;;;;;;9.50;8.00;;;;;;;;2041047;27;2756551;-75
2023/07/06 01:17:47;;;;;;;;;7.00;7.00;;;;;;;;2033321;27;3439813;-75
2023/07/06 01:19:03;;;;;;;;;9.00;6.00;;;;;;;;2036568;27;2747715;-74
2023/07/06 01:20:25;;;;;;;;;6.50;6.50;;;;;;;;2042810;27;2735678;-75
2023/07/06 01:22:05;;;;;;;;;5.67;5.67;;;;;;;;2040597;27;3463774;-74
2023/07/06 01:23:19;;;;;;;;;7.00;6.25;;;;;;;;2034890;27;1814835;-73
2023/07/06 01:24:58;;;;;;;;;8.33;7.00;;;;;;;;2042808;27;3450243;-74
2023/07/06 01:26:42;;;;;;;;;9.67;6.67;;;;;;;;2034060;27;2750349;-74
2023/07/06 01:28:06;;;;;;;;;8.00;7.00;;;;;;;;2019154;28;3451282;-74
2023/07/06 01:29:31;;;;;;;;;7.83;6.17;;;;;;;;2064551;27;2730487;-74
2023/07/06 01:30:45;;;;;;;;;7.33;7.33;;;;;;;;2046141;27;2734628;-74
2023/07/06 01:32:02;;;;;;;;;9.25;6.50;;;;;;;;2033531;27;1829560;-74
2023/07/06 01:33:32;;;;;;;;;9.00;8.00;;;;;;;;2039302;27;2739828;-74
2023/07/06 01:34:53;;;;;;;;;7.75;6.25;;;;;;;;2048398;27;1829470;-74
2023/07/06 01:36:22;;;;;;;;;9.67;8.67;;;;;;;;2040362;27;3472110;-74
2023/07/06 01:37:36;;;;;;;;;10.33;7.33;;;;;;;;2038654;27;3468978;-74
2023/07/06 01:39:10;;;;;;;;;9.83;8.17;;;;;;;;2060450;27;2750280;-74
2023/07/06 01:40:20;;;;;;;;;5.33;5.00;;;;;;;;2012538;27;3456471;-74
2023/07/06 01:41:31;;;;;;;;;5.00;4.00;;;;;;;;2068499;27;2754885;-74
2023/07/06 01:42:42;;;;;;;;;8.33;6.67;;;;;;;;2042979;27;2742039;-74
2023/07/06 01:43:53;;;;;;;;;8.33;7.00;;;;;;;;2040159;27;1825254;-74
2023/07/06 01:45:09;;;;;;;;;8.67;8.67;;;;;;;;2024829;27;2737845;-74
2023/07/06 01:46:19;;;;;;;;;7.67;6.33;;;;;;;;2042366;27;3447120;-74
2023/07/06 01:47:32;;;;;;;;;9.00;7.00;;;;;;;;2063366;27;1827375;-73
2023/07/06 01:48:45;;;;;;;;;8.50;7.83;;;;;;;;2053577;27;2740889;-73
2023/07/06 01:49:56;;;;;;;;;5.33;5.33;;;;;;;;2013268;27;2748266;-73
2023/07/06 01:51:21;;;;;;;;;7.67;7.00;;;;;;;;2043132;27;2738924;-73
2023/07/06 01:52:43;;;;;;;;;6.67;6.17;;;;;;;;2066810;27;2742961;-73
2023/07/06 01:54:02;;;;;;;;;7.00;7.00;;;;;;;;2016676;27;2732903;-73
2023/07/06 01:55:15;;;;;;;;;6.33;6.33;;;;;;;;2042354;27;2735787;-73
2023/07/06 01:56:53;;;;;;;;;9.75;7.75;;;;;;;;2057234;27;1834751;-73
2023/07/06 01:58:15;;;;;;;;;8.75;7.25;;;;;;;;2045235;27;1835766;-73
2023/07/06 01:59:32;;;;;;;;;7.50;7.50;;;;;;;;2068023;27;2746106;-73
2023/07/06 02:00:46;;;;;;;;;11.25;8.50;;;;;;;;2032862;27;1829514;-73
2023/07/06 02:02:00;;;;;;;;;8.50;6.50;;;;;;;;2042146;27;2734655;-73
2023/07/06 02:03:12;;;;;;;;;9.00;8.00;;;;;;;;2042288;27;2751377;-73
2023/07/06 02:04:22;;;;;;;;;8.33;7.00;;;;;;;;2034878;27;2738289;-73
2023/07/06 02:05:36;;;;;;;;;8.00;7.00;;;;;;;;2060020;27;2743013;-74
2023/07/06 02:06:48;;;;;;;;;9.67;8.33;;;;;;;;2033542;27;3459637;-73
2023/07/06 02:07:59;;;;;;;;;8.50;7.00;;;;;;;;2034243;27;2738160;-73
2023/07/06 02:09:12;;;;;;;;;6.00;6.00;;;;;;;;2032992;27;2737770;-73
2023/07/06 02:10:23;;;;;;;;;8.67;5.67;;;;;;;;2035024;27;2750341;-74
2023/07/06 02:11:35;;;;;;;;;5.00;4.50;;;;;;;;2058132;27;2748196;-75
2023/07/06 02:12:49;;;;;;;;;9.83;7.83;;;;;;;;2061319;27;2741392;-76
2023/07/06 02:13:59;;;;;;;;;7.00;6.00;;;;;;;;2017626;27;2746118;-75
2023/07/06 02:15:10;;;;;;;;;6.67;6.00;;;;;;;;2066460;27;3441920;-75
2023/07/06 02:16:21;;;;;;;;;7.00;6.00;;;;;;;;2059026;27;2736720;-75
2023/07/06 02:17:32;;;;;;;;;9.33;6.67;;;;;;;;2011215;27;3454408;-75
2023/07/06 02:18:44;;;;;;;;;6.60;6.60;;;;;;;;2066332;27;2738233;-75
2023/07/06 02:19:58;;;;;;;;;8.17;6.83;;;;;;;;2060107;27;2736719;-74
2023/07/06 02:21:12;;;;;;;;;7.00;7.00;;;;;;;;2028205;27;2745172;-74
2023/07/06 02:22:25;;;;;;;;;7.33;5.33;;;;;;;;2009971;27;2739933;-74
2023/07/06 02:23:36;;;;;;;;;7.00;5.00;;;;;;;;2032850;27;2747132;-74
2023/07/06 02:24:46;;;;;;;;;7.00;5.33;;;;;;;;2033862;27;3459624;-74
2023/07/06 02:25:57;;;;;;;;;8.00;7.50;;;;;;;;2054225;27;2735690;-73
2023/07/06 02:27:10;;;;;;;;;5.33;5.33;;;;;;;;2052213;27;3445005;-73
2023/07/06 02:28:21;;;;;;;;;7.00;6.00;;;;;;;;2055142;27;1819072;-73
2023/07/06 02:29:33;;;;;;;;;6.33;5.33;;;;;;;;2043418;27;2742996;-73
2023/07/06 02:30:43;;;;;;;;;6.33;6.33;;;;;;;;2042113;27;2727329;-73
2023/07/06 02:31:54;;;;;;;;;10.00;7.00;;;;;;;;2036148;27;3476348;-73
2023/07/06 02:33:05;;;;;;;;;8.00;7.00;;;;;;;;2055288;27;2726418;-73
2023/07/06 02:34:24;;;;;;;;;9.00;6.33;;;;;;;;2058815;27;2746101;-73
2023/07/06 02:35:34;;;;;;;;;9.00;7.33;;;;;;;;2035619;27;3460659;-73
2023/07/06 02:36:45;;;;;;;;;8.33;7.00;;;;;;;;2064046;27;2734648;-73
2023/07/06 02:37:56;;;;;;;;;7.00;6.33;;;;;;;;2067790;27;2735736;-73
2023/07/06 02:39:06;;;;;;;;;6.67;5.33;;;;;;;;2029450;27;2740975;-73
2023/07/06 02:40:18;;;;;;;;;10.00;6.00;;;;;;;;2050659;27;3480470;-73
2023/07/06 02:41:28;;;;;;;;;10.25;8.75;;;;;;;;2071011;27;1821122;-73
2023/07/06 02:42:42;;;;;;;;;8.50;8.50;;;;;;;;2020586;27;2741959;-73
2023/07/06 02:43:52;;;;;;;;;10.00;9.00;;;;;;;;2037057;27;2760676;-73
2023/07/06 02:45:05;;;;;;;;;11.50;10.00;;;;;;;;2058520;27;2773189;-73
2023/07/06 02:46:19;;;;;;;;;11.00;10.50;;;;;;;;2007454;27;2791922;-73
2023/07/06 02:47:30;;;;;;;;;12.50;9.50;;;;;;;;2025446;27;2779441;-73
2023/07/06 02:48:40;;;;;;;;;14.25;9.75;;;;;;;;2068280;27;1831550;-74
2023/07/06 02:49:51;;;;;;;;;14.50;9.00;;;;;;;;2008954;27;2773184;-74
2023/07/06 02:51:02;;;;;;;;;10.25;10.25;;;;;;;;2037119;27;1827470;-74
2023/07/06 02:52:13;;;;;;;;;12.67;11.00;;;;;;;;2016751;27;2786677;-73
2023/07/06 02:53:24;;;;;;;;;8.33;8.00;;;;;;;;2034234;27;2736075;-74
2023/07/06 02:54:36;;;;;;;;;8.67;8.00;;;;;;;;2066035;27;1833619;-73
2023/07/06 02:55:47;;;;;;;;;13.00;12.00;;;;;;;;2047596;27;2781529;-75
2023/07/06 02:57:00;;;;;;;;;8.33;7.67;;;;;;;;2005055;27;2746121;-75
2023/07/06 02:58:12;;;;;;;;;13.50;10.50;;;;;;;;2045834;27;1842009;-74
2023/07/06 02:59:23;;;;;;;;;12.50;9.25;;;;;;;;2058290;27;1842042;-74
2023/07/06 03:00:33;;;;;;;;;5.00;5.00;;;;;;;;2044237;27;3448145;-74
2023/07/06 03:01:45;;;;;;;;;9.00;7.50;;;;;;;;2062173;27;2747490;-74
2023/07/06 03:02:56;;;;;;;;;11.00;9.00;;;;;;;;2026260;27;2767928;-74
2023/07/06 03:04:09;;;;;;;;;10.50;9.00;;;;;;;;2000551;27;2767988;-74
2023/07/06 03:05:23;;;;;;;;;9.67;8.00;;;;;;;;2051281;27;1827433;-74
2023/07/06 03:06:33;;;;;;;;;11.00;9.00;;;;;;;;2019098;27;2776313;-74
2023/07/06 03:07:44;;;;;;;;;11.67;8.67;;;;;;;;2057361;27;3483572;-74
2023/07/06 03:08:55;;;;;;;;;8.33;7.00;;;;;;;;2045251;27;2731571;-74
2023/07/06 03:10:09;;;;;;;;;10.17;9.17;;;;;;;;2058140;27;1825909;-74
2023/07/06 03:11:19;;;;;;;;;10.67;9.67;;;;;;;;2003724;27;3490924;-74
2023/07/06 03:12:33;;;;;;;;;10.00;10.00;;;;;;;;2057365;27;2774241;-74
2023/07/06 03:13:44;;;;;;;;;8.00;8.00;;;;;;;;2042573;27;3472111;-74
2023/07/06 03:14:54;;;;;;;;;10.00;8.50;;;;;;;;2071392;27;1827376;-75
2023/07/06 03:16:07;;;;;;;;;15.50;9.00;;;;;;;;2041765;27;2786726;-74
2023/07/06 03:17:17;;;;;;;;;9.00;9.00;;;;;;;;2042258;27;2742973;-74
2023/07/06 03:18:28;;;;;;;;;10.25;7.25;;;;;;;;2074184;27;1817072;-74
2023/07/06 03:19:39;;;;;;;;;12.00;10.00;;;;;;;;2041251;27;2787771;-74
2023/07/06 03:20:50;;;;;;;;;10.33;7.67;;;;;;;;2038720;27;3465900;-74
2023/07/06 03:22:01;;;;;;;;;8.33;8.33;;;;;;;;2075538;27;1840898;-74
2023/07/06 03:23:11;;;;;;;;;11.00;10.00;;;;;;;;2042143;27;2784666;-74
2023/07/06 03:24:22;;;;;;;;;4.33;1.67;;;;;;;;2053384;28;2741939;-73
2023/07/06 03:25:33;;;;;;;;;10.33;8.67;;;;;;;;2031601;27;2756529;-73
2023/07/06 03:26:43;;;;;;;;;11.00;8.00;;;;;;;;2035740;27;2766930;-73
2023/07/06 03:27:54;;;;;;;;;13.75;10.75;;;;;;;;2072334;27;1821184;-73
2023/07/06 03:29:06;;;;;;;;;10.75;9.75;;;;;;;;2056691;27;1844044;-73
2023/07/06 03:30:19;;;;;;;;;10.00;8.00;;;;;;;;2042132;27;2753396;-73
2023/07/06 03:31:30;;;;;;;;;10.67;5.00;;;;;;;;2032699;27;3486698;-73
2023/07/06 03:32:40;;;;;;;;;9.50;8.50;;;;;;;;2034304;27;2753938;-73
2023/07/06 03:33:52;;;;;;;;;9.00;9.00;;;;;;;;2062302;27;2747140;-74
2023/07/06 03:35:05;;;;;;;;;12.00;10.33;;;;;;;;2038793;27;1831518;-74
2023/07/06 03:36:16;;;;;;;;;8.67;8.00;;;;;;;;2020531;27;1819004;-74
2023/07/06 03:37:29;;;;;;;;;11.00;9.00;;;;;;;;2025507;27;2764871;-74
2023/07/06 03:38:39;;;;;;;;;12.50;9.50;;;;;;;;2035923;27;2785688;-74
2023/07/06 03:39:51;;;;;;;;;12.17;9.83;;;;;;;;2036757;27;2787752;-74
2023/07/06 03:41:04;;;;;;;;;12.00;9.00;;;;;;;;2040339;27;2773181;-74
2023/07/06 03:42:16;;;;;;;;;13.00;9.00;;;;;;;;2041159;27;2778384;-74
2023/07/06 03:43:33;;;;;;;;;11.83;9.17;;;;;;;;2050072;27;1827437;-74
2023/07/06 03:44:45;;;;;;;;;7.50;7.50;;;;;;;;2036050;27;1844071;-74
2023/07/06 03:45:59;;;;;;;;;12.00;9.17;;;;;;;;2070603;27;1827436;-74
2023/07/06 03:47:10;;;;;;;;;8.00;8.00;;;;;;;;2021085;27;2739883;-74
2023/07/06 03:48:22;;;;;;;;;12.60;9.80;;;;;;;;2074444;27;1825298;-74
2023/07/06 03:49:35;;;;;;;;;13.00;10.00;;;;;;;;2030895;27;2791882;-73
2023/07/06 03:50:45;;;;;;;;;11.00;10.00;;;;;;;;2006277;27;2779418;-73
2023/07/06 03:51:56;;;;;;;;;11.00;8.67;;;;;;;;2046383;27;1835781;-73
2023/07/06 03:53:07;;;;;;;;;10.50;9.50;;;;;;;;2047010;27;2780508;-73
2023/07/06 03:54:18;;;;;;;;;8.50;8.50;;;;;;;;2019863;27;2744030;-73
2023/07/06 03:55:30;;;;;;;;;12.83;11.17;;;;;;;;2058466;27;2790915;-73
2023/07/06 03:56:42;;;;;;;;;10.50;6.75;;;;;;;;2041232;27;1813854;-73
2023/07/06 03:58:00;;;;;;;;;13.00;11.86;;;;;;;;2050747;27;1833578;-73
2023/07/06 03:59:10;;;;;;;;;8.50;8.50;;;;;;;;2043294;27;2738830;-73
2023/07/06 04:00:24;;;;;;;;;9.25;8.75;;;;;;;;2074186;27;1815930;-73
2023/07/06 04:01:36;;;;;;;;;7.25;6.50;;;;;;;;2051793;27;1820109;-73
2023/07/06 04:02:48;;;;;;;;;10.00;10.00;;;;;;;;2036348;27;2781490;-73
2023/07/06 04:04:01;;;;;;;;;7.50;5.83;;;;;;;;2039145;27;2738798;-74
2023/07/06 04:05:11;;;;;;;;;17.50;12.00;;;;;;;;2010910;27;2809645;-74
2023/07/06 04:06:23;;;;;;;;;13.00;11.00;;;;;;;;2036948;27;1819023;-75
2023/07/06 04:07:37;;;;;;;;;10.33;8.17;;;;;;;;2066574;27;1816906;-74
2023/07/06 04:08:47;;;;;;;;;10.50;9.00;;;;;;;;2007989;27;2762788;-73
2023/07/06 04:10:00;;;;;;;;;16.00;11.50;;;;;;;;2032490;27;2801288;-73
2023/07/06 04:11:10;;;;;;;;;9.00;8.00;;;;;;;;2005095;27;2757528;-73
2023/07/06 04:12:21;;;;;;;;;10.00;10.00;;;;;;;;2041774;27;1827373;-73
2023/07/06 04:13:32;;;;;;;;;10.67;8.33;;;;;;;;2043678;27;3477328;-73
2023/07/06 04:14:43;;;;;;;;;10.50;10.00;;;;;;;;2054946;27;2788800;-73
2023/07/06 04:15:53;;;;;;;;;8.00;8.00;;;;;;;;2036970;27;2729396;-73
2023/07/06 04:17:07;;;;;;;;;12.00;9.50;;;;;;;;2064980;27;2777347;-74
2023/07/06 04:18:18;;;;;;;;;11.00;11.00;;;;;;;;2040942;27;2789859;-73
2023/07/06 04:19:30;;;;;;;;;10.00;8.00;;;;;;;;2024606;27;2754404;-73
2023/07/06 04:20:43;;;;;;;;;10.50;9.00;;;;;;;;2065330;27;1819033;-74
2023/07/06 04:21:55;;;;;;;;;11.00;11.00;;;;;;;;2018659;27;2789850;-74
2023/07/06 04:23:05;;;;;;;;;11.50;9.00;;;;;;;;2016825;27;2769021;-74
2023/07/06 04:24:17;;;;;;;;;11.50;9.33;;;;;;;;2050962;27;2779418;-74
2023/07/06 04:25:29;;;;;;;;;10.00;7.00;;;;;;;;2023538;27;2764876;-74
2023/07/06 04:26:40;;;;;;;;;14.50;12.50;;;;;;;;2039674;27;2806501;-73
2023/07/06 04:27:52;;;;;;;;;9.00;9.00;;;;;;;;2005803;27;2752352;-74
2023/07/06 04:29:03;;;;;;;;;11.50;11.00;;;;;;;;2033930;27;2783593;-74
2023/07/06 04:30:15;;;;;;;;;9.60;9.60;;;;;;;;2036287;27;1829480;-74
2023/07/06 04:31:25;;;;;;;;;11.00;9.50;;;;;;;;2026764;27;2770019;-74
2023/07/06 04:32:36;;;;;;;;;10.50;10.00;;;;;;;;2064190;27;2788805;-74
2023/07/06 04:33:47;;;;;;;;;12.50;8.75;;;;;;;;2067243;27;1829409;-74
2023/07/06 04:35:00;;;;;;;;;8.40;8.40;;;;;;;;2074021;27;1825254;-74
2023/07/06 04:36:17;;;;;;;;;9.33;9.33;;;;;;;;2051242;27;1823239;-74
2023/07/06 04:37:28;;;;;;;;;10.00;10.00;;;;;;;;2009835;27;2787787;-74
2023/07/06 04:38:39;;;;;;;;;15.50;11.00;;;;;;;;2009826;27;2796084;-74
2023/07/06 04:39:49;;;;;;;;;11.00;10.00;;;;;;;;2047532;27;2779454;-74
2023/07/06 04:41:01;;;;;;;;;17.00;10.00;;;;;;;;2065005;27;2801324;-74
2023/07/06 04:42:11;;;;;;;;;9.50;9.00;;;;;;;;2005887;27;2765885;-74
2023/07/06 04:43:26;;;;;;;;;12.67;10.67;;;;;;;;2030062;27;2806584;-74
2023/07/06 04:44:38;;;;;;;;;17.20;11.80;;;;;;;;2026880;27;2816941;-74
2023/07/06 04:45:49;;;;;;;;;11.25;9.50;;;;;;;;2043277;27;1831552;-74
2023/07/06 04:47:03;;;;;;;;;13.50;11.17;;;;;;;;2063172;27;1827413;-72
2023/07/06 04:48:16;;;;;;;;;11.50;10.00;;;;;;;;2033162;27;2784678;-73
2023/07/06 04:49:29;;;;;;;;;11.50;10.17;;;;;;;;2050276;27;1829505;-73
2023/07/06 04:50:40;;;;;;;;;13.50;11.00;;;;;;;;2016926;27;2782590;-73
2023/07/06 04:51:52;;;;;;;;;11.40;10.20;;;;;;;;2037927;27;1827488;-73
2023/07/06 04:53:03;;;;;;;;;10.00;9.00;;;;;;;;2024237;27;2762733;-73
2023/07/06 04:54:14;;;;;;;;;13.00;11.00;;;;;;;;2019887;28;2787763;-73
2023/07/06 04:55:27;;;;;;;;;10.50;9.00;;;;;;;;2027499;27;2770027;-73
2023/07/06 04:56:37;;;;;;;;;12.00;12.00;;;;;;;;2024921;27;2787746;-74
2023/07/06 04:57:49;;;;;;;;;13.00;13.00;;;;;;;;2034532;27;2810697;-73
2023/07/06 04:59:04;;;;;;;;;13.50;10.17;;;;;;;;2041488;27;1821150;-74
2023/07/06 05:00:24;;;;;;;;;10.83;10.00;;;;;;;;2042689;27;1832058;-73
2023/07/06 05:01:34;;;;;;;;;12.50;12.00;;;;;;;;2017987;27;2789850;-74
2023/07/06 05:02:47;;;;;;;;;17.14;12.43;;;;;;;;2032734;27;2798204;-74
2023/07/06 05:03:59;;;;;;;;;10.00;9.75;;;;;;;;2052682;27;1843999;-74
2023/07/06 05:05:11;;;;;;;;;10.50;10.50;;;;;;;;2026100;27;2786810;-74
2023/07/06 05:06:23;;;;;;;;;12.00;12.00;;;;;;;;2007311;27;2789367;-74
2023/07/06 05:07:34;;;;;;;;;12.00;10.00;;;;;;;;2013821;27;2792299;-73
2023/07/06 05:08:50;;;;;;;;;13.71;13.00;;;;;;;;2040459;27;1829421;-73
2023/07/06 05:10:04;;;;;;;;;17.00;11.50;;;;;;;;2065896;27;1827473;-73
2023/07/06 05:11:15;;;;;;;;;12.00;9.50;;;;;;;;2015436;27;2778377;-73
2023/07/06 05:12:25;;;;;;;;;11.50;9.00;;;;;;;;2014109;27;2761715;-73
2023/07/06 05:13:37;;;;;;;;;12.50;11.00;;;;;;;;2028175;27;2790866;-73
2023/07/06 05:14:47;;;;;;;;;13.00;11.00;;;;;;;;2023079;27;2798172;-73
2023/07/06 05:15:58;;;;;;;;;14.25;11.75;;;;;;;;2042824;27;1829557;-73
2023/07/06 05:17:09;;;;;;;;;12.50;9.50;;;;;;;;2031983;27;2775274;-73
2023/07/06 05:18:21;;;;;;;;;11.50;11.00;;;;;;;;2051834;27;2799178;-73
2023/07/06 05:19:32;;;;;;;;;14.00;11.00;;;;;;;;2002921;27;2790935;-73
2023/07/06 05:20:43;;;;;;;;;14.75;12.50;;;;;;;;2028523;27;1833150;-73
2023/07/06 05:21:55;;;;;;;;;12.00;11.00;;;;;;;;2036064;27;2784713;-74
2023/07/06 05:23:08;;;;;;;;;12.17;12.17;;;;;;;;2070080;27;1824257;-74
2023/07/06 05:24:19;;;;;;;;;17.00;12.67;;;;;;;;2013782;27;2799757;-74
2023/07/06 05:25:30;;;;;;;;;12.50;11.00;;;;;;;;2036581;27;2790907;-73
2023/07/06 05:26:41;;;;;;;;;17.00;11.25;;;;;;;;2044435;27;1829482;-74
2023/07/06 05:27:51;;;;;;;;;14.50;14.00;;;;;;;;2043275;27;2800321;-74
2023/07/06 05:29:02;;;;;;;;;12.50;11.50;;;;;;;;2044428;27;1827991;-74
2023/07/06 05:30:13;;;;;;;;;11.00;10.00;;;;;;;;2014256;27;2787776;-74
2023/07/06 05:31:24;;;;;;;;;9.67;6.67;;;;;;;;2029178;27;3470016;-74
2023/07/06 05:32:36;;;;;;;;;11.33;11.00;;;;;;;;2052940;27;2789882;-74
2023/07/06 05:33:47;;;;;;;;;15.00;13.50;;;;;;;;2026308;27;2795075;-74
2023/07/06 05:34:58;;;;;;;;;9.50;7.00;;;;;;;;2030612;27;2750229;-74
2023/07/06 05:36:09;;;;;;;;;7.50;7.50;;;;;;;;2063419;27;2746085;-74
2023/07/06 05:37:20;;;;;;;;;11.50;9.50;;;;;;;;2063629;27;2770448;-74
2023/07/06 05:38:31;;;;;;;;;13.00;8.67;;;;;;;;2055385;27;3485644;-73
2023/07/06 05:39:42;;;;;;;;;9.33;9.00;;;;;;;;2073903;27;1821166;-73
2023/07/06 05:40:52;;;;;;;;;9.50;7.00;;;;;;;;2026146;28;2742989;-73
2023/07/06 05:42:03;;;;;;;;;6.33;6.00;;;;;;;;2049709;27;1821305;-73
2023/07/06 05:43:14;;;;;;;;;10.50;10.50;;;;;;;;2024063;27;2779476;-73
2023/07/06 05:44:25;;;;;;;;;9.00;8.00;;;;;;;;2008047;27;2739900;-73
2023/07/06 05:45:36;;;;;;;;;10.50;8.00;;;;;;;;2066450;27;2757600;-73
2023/07/06 05:46:46;;;;;;;;;12.00;7.00;;;;;;;;2041461;27;2762757;-73
2023/07/06 05:47:57;;;;;;;;;11.33;7.33;;;;;;;;2065203;27;1842042;-73
2023/07/06 05:49:08;;;;;;;;;7.33;7.00;;;;;;;;2030882;27;3442966;-73
2023/07/06 05:50:19;;;;;;;;;8.33;8.33;;;;;;;;2048498;27;3466966;-73
2023/07/06 05:51:29;;;;;;;;;11.33;9.00;;;;;;;;2050729;27;3486230;-73
2023/07/06 05:52:41;;;;;;;;;6.33;5.67;;;;;;;;2051410;27;2743004;-73
2023/07/06 05:53:51;;;;;;;;;9.00;8.00;;;;;;;;2029362;27;3455464;-73
2023/07/06 05:55:02;;;;;;;;;7.00;7.00;;;;;;;;2066735;27;2737781;-73
2023/07/06 05:56:13;;;;;;;;;8.00;6.00;;;;;;;;2026346;27;3453390;-73
2023/07/06 05:57:23;;;;;;;;;4.67;4.67;;;;;;;;2044800;27;2750265;-73
2023/07/06 05:58:35;;;;;;;;;7.67;6.00;;;;;;;;2057708;27;2733971;-73
2023/07/06 05:59:46;;;;;;;;;6.00;4.67;;;;;;;;2042378;27;2750302;-73
2023/07/06 06:01:00;;;;;;;;;11.00;7.00;;;;;;;;2066974;27;2744047;-73
2023/07/06 06:02:13;;;;;;;;;8.00;5.00;;;;;;;;2015538;27;3456494;-73
2023/07/06 06:03:26;;;;;;;;;6.83;6.50;;;;;;;;2063877;27;2738834;-73
2023/07/06 06:04:37;;;;;;;;;5.67;3.67;;;;;;;;2026312;27;2749205;-73
2023/07/06 06:05:52;;;;;;;;;7.67;4.67;;;;;;;;2032569;27;3458558;-73
2023/07/06 06:07:06;;;;;;;;;6.83;5.00;;;;;;;;2060009;27;2745147;-73
2023/07/06 06:08:18;;;;;;;;;4.67;4.67;;;;;;;;2002528;27;3463796;-73
2023/07/06 06:09:28;;;;;;;;;6.00;5.00;;;;;;;;2032563;27;2737757;-73
2023/07/06 06:10:39;;;;;;;;;3.00;0.00;;;;;;;;2060974;27;2720046;-73
2023/07/06 06:11:49;;;;;;;;;9.00;5.67;;;;;;;;2030542;27;2752495;-73
2023/07/06 06:13:00;;;;;;;;;7.33;5.00;;;;;;;;2043989;27;3458597;-73
2023/07/06 06:14:11;;;;;;;;;5.33;5.00;;;;;;;;2049410;27;2740264;-73
2023/07/06 06:15:22;;;;;;;;;5.67;4.00;;;;;;;;2046889;27;2748216;-73
2023/07/06 06:16:33;;;;;;;;;4.00;4.00;;;;;;;;2047245;27;2748203;-73
2023/07/06 06:17:44;;;;;;;;;4.00;2.00;;;;;;;;2050074;27;2754420;-73
2023/07/06 06:18:57;;;;;;;;;5.00;5.00;;;;;;;;2066337;27;2745046;-73
2023/07/06 06:20:10;;;;;;;;;7.00;5.50;;;;;;;;2058824;27;2748721;-73
2023/07/06 06:21:20;;;;;;;;;7.00;4.00;;;;;;;;2003991;27;2754581;-73
2023/07/06 06:22:33;;;;;;;;;4.33;4.33;;;;;;;;2050992;27;2740910;-73
2023/07/06 06:23:44;;;;;;;;;5.00;4.00;;;;;;;;2031548;27;3464862;-73
2023/07/06 06:24:55;;;;;;;;;4.00;3.00;;;;;;;;2065794;27;2754431;-73
2023/07/06 06:26:06;;;;;;;;;6.00;4.33;;;;;;;;2043619;27;1816950;-72
2023/07/06 06:27:17;;;;;;;;;4.33;3.33;;;;;;;;2030752;27;2741935;-73
2023/07/06 06:28:30;;;;;;;;;1.83;1.00;;;;;;;;2054148;27;2727337;-73
2023/07/06 06:29:43;;;;;;;;;5.67;5.67;;;;;;;;2032427;27;2735761;-73
2023/07/06 06:30:56;;;;;;;;;6.33;5.00;;;;;;;;2036519;27;2742012;-73
2023/07/06 06:32:07;;;;;;;;;5.67;5.00;;;;;;;;2006389;27;2746180;-73
2023/07/06 06:33:19;;;;;;;;;7.00;4.20;;;;;;;;2055984;27;2752455;-72
2023/07/06 06:34:30;;;;;;;;;4.33;4.00;;;;;;;;2025975;27;2747158;-72
2023/07/06 06:35:41;;;;;;;;;5.33;4.33;;;;;;;;2052555;27;2740898;-72
2023/07/06 06:36:51;;;;;;;;;2.33;2.00;;;;;;;;2060331;27;2736747;-72
2023/07/06 06:38:05;;;;;;;;;5.60;4.20;;;;;;;;2062916;27;2742301;-72
2023/07/06 06:39:15;;;;;;;;;4.00;4.00;;;;;;;;2020350;27;2738886;-72
2023/07/06 06:40:27;;;;;;;;;5.33;3.67;;;;;;;;2065910;27;2750311;-72
2023/07/06 06:41:41;;;;;;;;;5.67;4.17;;;;;;;;2068351;27;2746089;-72
2023/07/06 06:42:51;;;;;;;;;6.67;4.00;;;;;;;;2019169;27;2749822;-72
2023/07/06 06:44:02;;;;;;;;;5.00;5.00;;;;;;;;2055336;27;2745146;-72
2023/07/06 06:45:13;;;;;;;;;3.67;3.67;;;;;;;;2061015;27;2753496;-73
2023/07/06 06:46:24;;;;;;;;;3.67;3.00;;;;;;;;2056213;27;2754471;-73
2023/07/06 06:47:34;;;;;;;;;6.33;5.33;;;;;;;;2067813;27;2742992;-73
2023/07/06 06:48:45;;;;;;;;;3.00;3.00;;;;;;;;2029511;27;2753455;-73
2023/07/06 06:49:56;;;;;;;;;5.33;4.00;;;;;;;;2041630;27;2750263;-72
2023/07/06 06:51:10;;;;;;;;;6.33;4.00;;;;;;;;2052106;27;2747160;-72
2023/07/06 06:52:23;;;;;;;;;3.17;3.17;;;;;;;;2062004;27;2725247;-72
2023/07/06 06:53:34;;;;;;;;;3.33;2.00;;;;;;;;2012181;27;2748216;-72
2023/07/06 06:54:44;;;;;;;;;4.00;4.00;;;;;;;;2037349;27;2749382;-72
2023/07/06 06:55:55;;;;;;;;;2.00;2.00;;;;;;;;2053051;27;2742971;-73
2023/07/06 06:57:06;;;;;;;;;3.67;3.67;;;;;;;;2046622;27;2748179;-72
2023/07/06 06:58:20;;;;;;;;;1.00;1.00;;;;;;;;2067810;27;2744042;-72
2023/07/06 06:59:35;;;;;;;;;2.67;2.00;;;;;;;;2068676;27;2736725;-73